Airfield :
LOGIN :

Register | Disclaimer

   EN    FR    IT 

 










Legend :    VFR   Marginal VFR   IFR   Intensive IFR   Very Intensive IFR
Visi :
Ceiling :
>= 8 km
>= 3000ft
5 to 8 km
1000 to 3000 ft
1500m to 5 km
500 to 1000 ft
800 to 1500m
200 to 500 ft
< 800m
< 200 ft
Symbols :   Thunderstorms  Fog  Heavy snow  Heavy precipitations  Wind > 20 kt
SIGMETs :     Misc.  Thunderstorms  Icing  Turbulence  Mountain Waves  Volcanic Ashes







- Airport Elevation : 194 ft


EBCV - Chièvres

CURRENT METAR :
  • 182055Z AUTO 23006KT 8000 -RA OVC035/// 07/07 Q1018 BLU

EXPIRED METARs :
  • 182044Z AUTO 24006KT 9999 -RA OVC032/// 07/07 Q1018 BLU
  • 182025Z AUTO 22005KT 7000 -RA OVC029/// 07/07 Q1018 WHT
  • 181955Z AUTO 24004KT 7000 RA OVC017/// 07/07 Q1019 WHT
  • 181946Z AUTO 27004KT 6000 -RA OVC014/// 07/07 Q1019 GRN
  • 181925Z AUTO 30003KT 3600 -RA OVC003/// 07/07 Q1019 YLO
  • 181855Z AUTO 31005KT 2700 -RA OVC003/// 07/07 Q1019 YLO
  • 181825Z AUTO 23007KT 2200 DZ OVC004/// 07/07 Q1019 YLO
  • 181755Z AUTO 24006KT 5000 -RA OVC005/// 07/07 Q1019 YLO

TAF TAF EBCV
Valid from the 18 at 19:00 until the 19 at 07:00 UTC


181541Z 1819/1907 29010KT 9999 SCT015 BKN020
TEMPO 1819/1901 5000 -RA/-DZ FEW008 BKN010 OVC012
BECMG 1901/1903 FEW015 SCT030
TEMPO 1903/1906 3000 BR FEW006 BY EBWM
No reported NOTAMs for that airfield.
3 SIGMETs reported for the Brussels FIR (EBBU) :
 
SIGMET 02 cancelation
EBBU SIGMET 04 VALID 182100/190100 EBBR
EBBU BRUSSELS FIR CNL SIGMET 02 VALID 182046/190046=
Severe icing
EBBU SIGMET 03 VALID 182059/190059 EBBR
EBBU BRUSSELS FIR SEV ICE OBS WI N5030 E00245 - N5040 E00330 - N4920 E00500 - N5000 E00600 FL080/180 MOV ESE 20KT NC=
SIGMET 02  CANCELED :
Severe icing
EBBU SIGMET 02 VALID 182046/190046 EBBR
EBBU BRUSSELS FIR SEV ICE OBS WI N5030 E00245 - N5040 E00330 - N4920 E00500 - N4920 E00640 FL080/180 MOV ESE 20KT NC=



MET'MAP, your aeronautical weather chart ! - Copyright ORBIFLY December 2007 - Disclaimer

ORBIFLY MET'MAP TEAM :

Programming & Development : Alexandra Zaïnal
Concept & Development : Baudouin d'Aumeries
Co-Development & Prog : Marc-Olivier Méhu
Technical & hardware support : Manuel Goepfert

Contact : metmap@orbifly.com




SOURCES & CREDITS :

   NOAA